Time;durP1;ratioP1;P1;durP2;ratioP2;P2;SDS_P1;SDS_P2;PMS_P1;PMS_P2;Temp;Humidity;BMP_temperature;BMP_pressure;BME280_temperature;BME280_humidity;BME280_pressure;Samples;Min_cycle;Max_cycle;Signal;HPM_P1;HPM_P2
2022/12/13 00:00:13;;;;;;;4.87;2.60;;;;;;;-0.35;100.00;93906.06;5093434;28;20246;-56
2022/12/13 00:02:43;;;;;;;5.30;3.03;;;;;;;-0.37;100.00;93905.34;5093454;28;20222;-55
2022/12/13 00:05:10;;;;;;;6.13;3.63;;;;;;;-0.40;100.00;93908.81;5093049;28;20207;-52
2022/12/13 00:07:36;;;;;;;5.67;3.53;;;;;;;-0.41;100.00;93889.75;5093098;28;20299;-53
2022/12/13 00:10:03;;;;;;;6.03;3.53;;;;;;;-0.32;100.00;93904.19;5093295;28;20773;-53
2022/12/13 00:12:29;;;;;;;5.40;3.60;;;;;;;-0.23;100.00;93897.91;5093523;28;20723;-53
2022/12/13 00:14:54;;;;;;;5.83;3.67;;;;;;;-0.26;100.00;93906.38;5093081;28;20246;-53
2022/12/13 00:17:19;;;;;;;6.40;3.53;;;;;;;-0.10;100.00;93893.81;5093411;28;20188;-53
2022/12/13 00:19:49;;;;;;;5.03;3.83;;;;;;;-0.17;100.00;93942.50;5093224;28;20199;-53
2022/12/13 00:22:15;;;;;;;5.23;3.17;;;;;;;-0.19;100.00;93925.13;5092854;28;20568;-55
2022/12/13 00:24:41;;;;;;;6.50;4.10;;;;;;;-0.15;100.00;93914.06;5090865;28;20625;-54
2022/12/13 00:27:08;;;;;;;8.70;3.97;;;;;;;-0.16;100.00;93937.41;5091645;28;20200;-53
2022/12/13 00:29:33;;;;;;;4.73;3.40;;;;;;;-0.21;100.00;93939.38;5093133;28;20214;-55
2022/12/13 00:31:59;;;;;;;7.83;3.77;;;;;;;-0.12;100.00;93923.06;5093297;28;20216;-53
2022/12/13 00:34:24;;;;;;;4.80;3.37;;;;;;;-0.22;100.00;93951.94;5091872;28;20214;-55
2022/12/13 00:36:51;;;;;;;5.10;3.53;;;;;;;-0.38;100.00;93937.00;5093008;28;20201;-55
2022/12/13 00:39:17;;;;;;;6.07;3.13;;;;;;;-0.37;100.00;93932.81;5092902;28;20231;-53
2022/12/13 00:41:43;;;;;;;6.97;3.53;;;;;;;-0.40;100.00;93920.47;5092696;28;20710;-53
2022/12/13 00:44:11;;;;;;;6.17;3.87;;;;;;;-0.37;100.00;93903.66;5092740;28;20215;-53
2022/12/13 00:46:37;;;;;;;6.20;3.63;;;;;;;-0.36;100.00;93901.94;5092868;28;20192;-55
2022/12/13 00:49:03;;;;;;;4.00;3.30;;;;;;;-0.31;100.00;93930.78;5092972;28;20187;-53
2022/12/13 00:51:31;;;;;;;6.47;3.70;;;;;;;-0.34;100.00;93927.63;5092636;28;20206;-55
2022/12/13 00:53:57;;;;;;;5.17;3.43;;;;;;;-0.25;100.00;93930.44;5074552;28;20187;-55
2022/12/13 00:56:25;;;;;;;6.93;3.83;;;;;;;-0.42;100.00;93935.53;5074628;28;20198;-55
2022/12/13 00:58:52;;;;;;;7.13;4.27;;;;;;;-0.30;100.00;93919.91;5092575;28;20268;-52
2022/12/13 01:01:20;;;;;;;6.83;4.00;;;;;;;-0.37;100.00;93931.13;5092529;28;20188;-56
2022/12/13 01:03:46;;;;;;;6.03;3.90;;;;;;;-0.39;100.00;93915.44;5092533;28;20190;-55
2022/12/13 01:06:20;;;;;;;6.80;3.93;;;;;;;-0.42;100.00;93925.56;5092491;28;20299;-55
2022/12/13 01:08:46;;;;;;;6.43;3.80;;;;;;;-0.42;100.00;93920.56;5092268;28;20191;-55
2022/12/13 01:11:12;;;;;;;5.80;3.83;;;;;;;-0.30;100.00;93912.41;5092245;28;20224;-55
2022/12/13 01:13:39;;;;;;;8.90;4.13;;;;;;;-0.37;100.00;93923.63;5074084;28;20230;-55
2022/12/13 01:16:07;;;;;;;12.37;4.87;;;;;;;-0.40;100.00;93930.47;5092159;28;20199;-54
2022/12/13 01:18:32;;;;;;;7.67;4.00;;;;;;;-0.35;100.00;93931.84;5092141;28;20223;-53
2022/12/13 01:21:07;;;;;;;7.93;3.70;;;;;;;-0.36;100.00;93930.22;5092099;28;20239;-52
2022/12/13 01:23:33;;;;;;;6.97;4.03;;;;;;;-0.37;100.00;93953.59;5092008;28;20726;-52
2022/12/13 01:26:06;;;;;;;7.03;3.43;;;;;;;-0.33;100.00;93945.03;5091964;28;20300;-53
2022/12/13 01:28:32;;;;;;;7.70;4.13;;;;;;;-0.31;100.00;93944.97;5092035;28;20691;-53
2022/12/13 01:31:00;;;;;;;5.87;4.13;;;;;;;-0.34;100.00;93958.41;5091797;28;20254;-55
2022/12/13 01:33:27;;;;;;;6.67;4.37;;;;;;;-0.35;100.00;93956.00;5091970;28;20534;-52
2022/12/13 01:35:53;;;;;;;5.83;3.87;;;;;;;-0.37;100.00;93943.59;5091667;28;20687;-54
2022/12/13 01:38:18;;;;;;;7.67;4.03;;;;;;;-0.22;100.00;93940.25;5091782;28;20183;-54
2022/12/13 01:40:47;;;;;;;9.63;4.53;;;;;;;-0.28;100.00;93957.25;5091825;28;20594;-54
2022/12/13 01:43:13;;;;;;;5.93;3.93;;;;;;;-0.27;100.00;93964.69;5092138;28;20567;-55
2022/12/13 01:45:39;;;;;;;6.43;3.70;;;;;;;-0.41;100.00;93963.81;5091344;28;20218;-53
2022/12/13 01:48:12;;;;;;;7.43;4.30;;;;;;;-0.27;100.00;93926.44;5092006;28;20192;-54
2022/12/13 01:50:41;;;;;;;8.07;4.83;;;;;;;-0.02;100.00;93910.00;5091632;28;20265;-55
2022/12/13 01:53:10;;;;;;;8.00;4.90;;;;;;;0.23;100.00;93931.91;5091615;28;20180;-53
2022/12/13 01:55:38;;;;;;;6.53;4.30;;;;;;;0.36;100.00;93949.50;5091614;28;20272;-53
2022/12/13 01:58:04;;;;;;;7.27;3.90;;;;;;;0.42;100.00;93954.16;5073745;28;20252;-53
2022/12/13 02:00:34;;;;;;;6.87;4.40;;;;;;;0.62;100.00;93951.31;5091386;28;20208;-55
2022/12/13 02:03:01;;;;;;;7.83;4.53;;;;;;;0.59;100.00;93988.97;5091820;28;20181;-52
2022/12/13 02:05:38;;;;;;;7.57;4.40;;;;;;;0.23;100.00;94006.03;5091286;28;20211;-53
2022/12/13 02:08:05;;;;;;;5.83;3.80;;;;;;;0.46;100.00;93963.09;5092048;28;20262;-53
2022/12/13 02:10:31;;;;;;;8.13;5.00;;;;;;;0.43;100.00;93959.06;5091624;28;20204;-53
2022/12/13 02:12:57;;;;;;;7.67;4.90;;;;;;;0.18;100.00;93945.56;5091321;28;20276;-52
2022/12/13 02:15:27;;;;;;;6.27;4.23;;;;;;;-0.17;100.00;93973.28;5091175;28;20208;-56
2022/12/13 02:18:11;;;;;;;7.97;4.73;;;;;;;-0.22;100.00;93926.97;5091179;28;20235;-55
2022/12/13 02:21:06;;;;;;;8.73;5.50;;;;;;;-0.20;100.00;93923.50;5091283;28;20203;-55
2022/12/13 02:23:53;;;;;;;7.43;4.97;;;;;;;-0.15;100.00;93934.06;5002165;28;20209;-54
2022/12/13 02:26:30;;;;;;;7.17;4.73;;;;;;;-0.19;100.00;93932.63;5091361;28;20214;-54
2022/12/13 02:29:14;;;;;;;8.70;5.13;;;;;;;-0.26;100.00;93951.31;5091079;28;20617;-54
2022/12/13 02:31:48;;;;;;;7.33;4.93;;;;;;;-0.21;100.00;93934.38;5091263;28;20208;-54
2022/12/13 02:34:22;;;;;;;8.37;5.37;;;;;;;-0.30;100.00;93944.06;5090934;28;20689;-54
2022/12/13 02:37:11;;;;;;;8.97;5.30;;;;;;;-0.16;100.00;93902.47;5091295;28;20236;-53
2022/12/13 02:39:42;;;;;;;8.30;4.93;;;;;;;0.04;100.00;93933.03;5091357;28;20559;-56
2022/12/13 02:42:22;;;;;;;8.23;5.37;;;;;;;0.00;100.00;93923.19;5091065;28;20642;-53
2022/12/13 02:45:06;;;;;;;7.63;5.23;;;;;;;-0.01;100.00;93951.56;5090942;28;20215;-53
2022/12/13 02:47:34;;;;;;;8.67;5.37;;;;;;;-0.20;100.00;93953.47;5090896;28;20184;-56
2022/12/13 02:50:05;;;;;;;8.63;5.33;;;;;;;-0.15;100.00;93931.56;5090763;28;20216;-55
2022/12/13 02:52:31;;;;;;;9.90;4.70;;;;;;;0.06;100.00;93934.56;5091111;28;20211;-55
2022/12/13 02:54:57;;;;;;;9.97;5.50;;;;;;;-0.15;100.00;93943.22;5090606;28;20647;-54
2022/12/13 02:57:30;;;;;;;10.13;5.37;;;;;;;-0.34;100.00;93937.63;5091673;28;20320;-54
2022/12/13 03:00:02;;;;;;;11.00;6.33;;;;;;;-0.15;100.00;93913.25;5094380;28;20234;-53
2022/12/13 03:02:39;;;;;;;18.23;10.20;;;;;;;-0.11;100.00;93925.50;5094419;28;20180;-55
2022/12/13 03:08:54;;;;;;;9.50;5.70;;;;;;;-0.11;100.00;93959.66;5094744;28;20229;-57
2022/12/13 03:11:22;;;;;;;8.30;5.23;;;;;;;-0.30;100.00;93974.81;5029984;28;20234;-54
2022/12/13 03:14:03;;;;;;;9.47;5.53;;;;;;;-0.38;100.00;93959.44;5094034;28;20270;-55
2022/12/13 03:16:29;;;;;;;9.20;5.83;;;;;;;-0.46;100.00;93959.06;5094247;28;20192;-54
2022/12/13 03:18:59;;;;;;;7.23;4.70;;;;;;;-0.52;100.00;93976.84;5094026;28;20245;-54
2022/12/13 03:21:24;;;;;;;8.60;5.03;;;;;;;-0.49;100.00;93958.44;5094016;28;20542;-53
2022/12/13 03:23:50;;;;;;;8.60;4.53;;;;;;;-0.54;100.00;93977.81;5093925;28;20187;-54
2022/12/13 03:26:25;;;;;;;7.83;4.90;;;;;;;-0.61;100.00;93969.06;5093907;28;20265;-56
2022/12/13 03:28:51;;;;;;;6.97;4.40;;;;;;;-0.73;100.00;93950.56;5093987;28;20194;-56
2022/12/13 03:31:17;;;;;;;7.73;4.90;;;;;;;-0.73;100.00;93969.72;5093942;28;20663;-56
2022/12/13 03:33:43;;;;;;;8.83;5.17;;;;;;;-0.73;100.00;93965.53;5092887;28;20184;-56
2022/12/13 03:36:09;;;;;;;6.87;4.13;;;;;;;-0.80;100.00;93968.41;5093682;28;20200;-53
2022/12/13 03:38:35;;;;;;;9.67;4.87;;;;;;;-0.91;100.00;93962.28;5101301;22;20231;-56
2022/12/13 03:41:06;;;;;;;8.63;4.73;;;;;;;-1.07;100.00;93940.75;5093648;28;20529;-55
2022/12/13 03:43:31;;;;;;;7.47;4.93;;;;;;;-1.11;100.00;93960.00;5093553;28;20187;-55
2022/12/13 03:45:57;;;;;;;8.00;4.40;;;;;;;-1.02;100.00;93946.28;5093597;28;20203;-55
2022/12/13 03:48:22;;;;;;;7.17;4.27;;;;;;;-1.05;100.00;93964.69;5093458;28;20191;-53
2022/12/13 03:50:48;;;;;;;8.03;4.00;;;;;;;-1.08;100.00;93984.00;5093196;28;20289;-54
2022/12/13 03:53:13;;;;;;;8.23;4.37;;;;;;;-1.07;100.00;93990.59;5093757;28;20551;-55
2022/12/13 03:55:39;;;;;;;8.23;5.03;;;;;;;-1.13;100.00;93996.69;5093214;28;20236;-57
2022/12/13 03:58:04;;;;;;;6.77;4.60;;;;;;;-1.18;100.00;93982.84;5093615;28;20203;-57
2022/12/13 04:00:30;;;;;;;7.90;5.40;;;;;;;-1.24;100.00;93983.16;5093247;28;20699;-54
2022/12/13 04:02:55;;;;;;;10.10;4.73;;;;;;;-1.26;100.00;93968.28;5075033;28;20195;-55
2022/12/13 04:05:21;;;;;;;9.53;4.77;;;;;;;-1.14;100.00;93951.91;5093553;28;20223;-56
2022/12/13 04:07:47;;;;;;;8.87;4.57;;;;;;;-1.29;100.00;93975.91;5093263;28;20223;-57
2022/12/13 04:10:13;;;;;;;8.23;5.10;;;;;;;-1.32;100.00;93952.84;5092924;28;20217;-55
2022/12/13 04:15:21;;;;;;;7.90;5.30;;;;;;;-1.22;100.00;93956.47;5093305;28;20272;-57
2022/12/13 04:17:47;;;;;;;8.03;5.00;;;;;;;-1.17;100.00;93960.31;5093030;28;20183;-54
2022/12/13 04:20:12;;;;;;;9.37;5.20;;;;;;;-0.88;100.00;93952.16;5092994;28;20708;-53
2022/12/13 04:22:38;;;;;;;10.77;5.53;;;;;;;-0.97;100.00;93976.78;5093171;28;20270;-56
2022/12/13 04:25:04;;;;;;;11.07;5.67;;;;;;;-0.86;100.00;93967.84;5092824;28;20239;-56
2022/12/13 04:27:29;;;;;;;9.33;5.80;;;;;;;-0.77;100.00;93998.19;5093075;28;20639;-56
2022/12/13 04:29:55;;;;;;;10.60;5.87;;;;;;;-0.79;100.00;93992.47;5092709;28;20310;-53
2022/12/13 04:32:20;;;;;;;9.83;5.50;;;;;;;-0.94;100.00;94001.56;5092620;28;20219;-54
2022/12/13 04:34:46;;;;;;;11.53;5.67;;;;;;;-0.84;100.00;93995.19;5092636;28;20674;-54
2022/12/13 04:37:11;;;;;;;9.17;5.43;;;;;;;-0.73;100.00;94012.94;5092661;28;20199;-54
2022/12/13 04:39:37;;;;;;;9.90;6.13;;;;;;;-0.67;100.00;94015.09;5092758;28;20242;-54
2022/12/13 04:42:03;;;;;;;11.77;5.87;;;;;;;-0.78;100.00;94021.50;5092544;28;20644;-53
2022/12/13 04:44:29;;;;;;;12.27;6.20;;;;;;;-0.75;100.00;94017.19;5092477;28;20200;-53
2022/12/13 04:46:54;;;;;;;10.30;5.97;;;;;;;-0.77;100.00;94013.16;5074173;28;20195;-54
2022/12/13 04:49:20;;;;;;;10.63;6.30;;;;;;;-0.85;100.00;94034.31;5092366;28;20238;-56
2022/12/13 04:51:46;;;;;;;10.77;6.40;;;;;;;-1.03;100.00;94074.34;5092348;28;20211;-55
2022/12/13 04:54:11;;;;;;;9.67;5.53;;;;;;;-1.23;100.00;94057.06;5092415;28;20212;-56
2022/12/13 04:56:37;;;;;;;11.53;6.37;;;;;;;-1.29;100.00;94049.88;5074225;28;20191;-54
2022/12/13 04:59:03;;;;;;;11.37;6.13;;;;;;;-1.24;100.00;94028.03;5092618;28;20196;-55
2022/12/13 05:01:29;;;;;;;10.57;5.87;;;;;;;-1.34;100.00;94027.69;5092384;28;20179;-55
2022/12/13 05:03:54;;;;;;;10.37;6.57;;;;;;;-1.27;100.00;94048.13;5092614;28;20254;-55
2022/12/13 05:06:19;;;;;;;8.53;5.57;;;;;;;-1.45;100.00;94044.00;5092379;28;20207;-57
2022/12/13 05:08:45;;;;;;;11.67;6.37;;;;;;;-1.65;100.00;94041.69;5092144;28;20348;-56
2022/12/13 05:11:11;;;;;;;12.20;6.57;;;;;;;-1.76;100.00;94020.59;5091969;28;20211;-53
2022/12/13 05:13:37;;;;;;;14.17;6.93;;;;;;;-1.73;100.00;94029.59;5099728;22;20303;-53
2022/12/13 05:16:05;;;;;;;8.33;5.50;;;;;;;-1.78;100.00;94066.38;5073992;28;20306;-56
2022/12/13 05:18:31;;;;;;;11.83;6.80;;;;;;;-1.88;100.00;94068.47;5092002;28;20219;-53
2022/12/13 05:21:01;;;;;;;9.13;5.60;;;;;;;-1.86;100.00;94070.91;5091818;28;20211;-54
2022/12/13 05:23:27;;;;;;;10.73;6.73;;;;;;;-1.96;100.00;94070.50;5092074;28;20191;-57
2022/12/13 05:25:53;;;;;;;12.77;7.03;;;;;;;-2.06;100.00;94051.91;5099601;22;20695;-53
2022/12/13 05:28:18;;;;;;;12.93;6.60;;;;;;;-2.04;100.00;94085.00;5092079;28;20212;-53
2022/12/13 05:30:43;;;;;;;8.47;5.60;;;;;;;-2.01;100.00;94074.09;5091975;28;20208;-56
2022/12/13 05:33:10;;;;;;;12.83;6.73;;;;;;;-2.00;100.00;94074.03;5091816;28;20239;-54
2022/12/13 05:35:35;;;;;;;9.50;5.53;;;;;;;-2.05;100.00;94083.41;5091597;28;20216;-53
2022/12/13 05:38:01;;;;;;;10.93;5.77;;;;;;;-2.02;100.00;94087.44;5091877;28;20198;-54
2022/12/13 05:40:29;;;;;;;9.63;5.60;;;;;;;-1.83;100.00;94084.03;5091794;28;20215;-54
2022/12/13 05:42:55;;;;;;;12.20;6.23;;;;;;;-1.96;100.00;94117.81;5091704;28;20247;-53
2022/12/13 05:45:21;;;;;;;10.67;6.23;;;;;;;-1.82;100.00;94103.06;5073361;28;20219;-53
2022/12/13 05:47:47;;;;;;;11.30;6.10;;;;;;;-1.95;100.00;94139.38;5091756;28;20190;-56
2022/12/13 05:50:13;;;;;;;10.93;6.30;;;;;;;-1.95;100.00;94119.44;5091341;28;20215;-54
2022/12/13 05:52:39;;;;;;;8.40;4.23;;;;;;;-1.98;100.00;94138.72;5091530;28;20207;-55
2022/12/13 05:55:04;;;;;;;10.87;6.07;;;;;;;-1.92;100.00;94133.44;5091624;28;20301;-55
2022/12/13 05:57:30;;;;;;;10.97;5.83;;;;;;;-2.10;100.00;94161.66;5073228;28;20687;-56
2022/12/13 05:59:56;;;;;;;10.87;5.60;;;;;;;-2.29;100.00;94155.84;5091893;28;20315;-56
2022/12/13 06:02:22;;;;;;;9.77;6.03;;;;;;;-2.20;100.00;94148.78;5091669;28;20241;-53
2022/12/13 06:04:47;;;;;;;11.33;5.93;;;;;;;-2.23;100.00;94163.88;5091657;28;20576;-55
2022/12/13 06:07:13;;;;;;;11.63;5.97;;;;;;;-2.31;100.00;94147.66;5091216;28;20181;-54
2022/12/13 06:09:38;;;;;;;9.60;5.77;;;;;;;-2.29;100.00;94160.84;5091492;28;20713;-54
2022/12/13 06:12:04;;;;;;;11.27;6.17;;;;;;;-2.31;100.00;94136.03;5090671;28;20590;-55
2022/12/13 06:14:29;;;;;;;13.43;7.10;;;;;;;-2.26;100.00;94138.31;5072534;28;20605;-53
2022/12/13 06:16:55;;;;;;;9.70;6.17;;;;;;;-2.19;100.00;94118.06;5091148;28;20206;-54
2022/12/13 06:19:21;;;;;;;12.07;5.57;;;;;;;-2.12;100.00;94159.22;5089702;28;20230;-53
2022/12/13 06:21:47;;;;;;;14.33;7.53;;;;;;;-1.92;100.00;94149.19;5090785;28;20280;-55
2022/12/13 06:24:14;;;;;;;13.27;7.00;;;;;;;-1.93;100.00;94137.63;5090107;28;20293;-53
2022/12/13 06:26:40;;;;;;;12.13;6.77;;;;;;;-1.43;100.00;94129.47;5090241;28;20568;-54
2022/12/13 06:29:05;;;;;;;16.00;7.57;;;;;;;-1.05;100.00;94141.72;5088594;28;20187;-53
2022/12/13 06:31:31;;;;;;;11.13;6.93;;;;;;;-0.90;100.00;94148.47;5088625;28;20745;-53
2022/12/13 06:34:01;;;;;;;12.43;6.77;;;;;;;-0.69;100.00;94159.09;5088003;28;20194;-53
2022/12/13 06:36:26;;;;;;;13.07;7.07;;;;;;;-0.59;100.00;94185.19;5089914;28;20179;-56
2022/12/13 06:38:51;;;;;;;13.10;6.83;;;;;;;-0.85;100.00;94175.69;5090873;28;20197;-55
2022/12/13 06:41:17;;;;;;;10.43;6.10;;;;;;;-0.77;100.00;94175.31;5091094;28;20197;-56
2022/12/13 06:43:45;;;;;;;12.53;6.97;;;;;;;-0.98;100.00;94180.47;5090873;28;20234;-55
2022/12/13 06:46:10;;;;;;;13.43;7.10;;;;;;;-1.10;100.00;94178.56;5090736;28;20206;-54
2022/12/13 06:48:36;;;;;;;10.67;6.20;;;;;;;-0.92;100.00;94174.34;5090684;28;20546;-53
2022/12/13 06:51:03;;;;;;;10.77;6.50;;;;;;;-0.92;100.00;94165.19;5090687;28;20249;-56
2022/12/13 06:53:29;;;;;;;12.20;6.60;;;;;;;-0.78;100.00;94142.06;5090660;28;20266;-63
2022/12/13 06:55:55;;;;;;;10.87;6.70;;;;;;;-0.93;100.00;94157.78;5090595;28;20759;-56
2022/12/13 06:58:21;;;;;;;10.97;6.53;;;;;;;-0.99;100.00;94210.47;5090574;28;20186;-54
2022/12/13 07:00:47;;;;;;;12.23;6.80;;;;;;;-0.81;100.00;94158.88;5090942;28;20212;-55
2022/12/13 07:03:13;;;;;;;13.57;7.10;;;;;;;-0.79;100.00;94184.56;5090371;28;20630;-53
2022/12/13 07:05:38;;;;;;;11.03;6.50;;;;;;;-1.22;100.00;94209.03;5090655;28;20235;-53
2022/12/13 07:08:04;;;;;;;13.43;7.00;;;;;;;-1.10;100.00;94186.03;5090334;28;20656;-54
2022/12/13 07:10:31;;;;;;;11.77;6.97;;;;;;;-0.65;100.00;94175.53;5090631;28;20215;-54
2022/12/13 07:12:56;;;;;;;10.87;7.00;;;;;;;-0.35;100.00;94198.94;5090357;28;20214;-53
2022/12/13 07:15:21;;;;;;;12.37;7.10;;;;;;;-0.36;100.00;94224.78;5090468;28;20200;-56
2022/12/13 07:17:54;;;;;;;14.77;7.50;;;;;;;-0.07;100.00;94193.34;5090435;28;20671;-55
2022/12/13 07:20:19;;;;;;;15.67;7.83;;;;;;;0.09;100.00;94248.31;5090611;28;20724;-57
2022/12/13 07:22:48;;;;;;;11.33;7.03;;;;;;;0.22;100.00;94281.81;5089811;28;20198;-56
2022/12/13 07:25:14;;;;;;;12.70;7.17;;;;;;;0.26;100.00;94288.25;5072075;28;20246;-54
2022/12/13 07:27:40;;;;;;;11.77;6.10;;;;;;;0.27;100.00;94304.84;5089620;28;20582;-56
2022/12/13 07:30:06;;;;;;;12.37;6.73;;;;;;;0.04;100.00;94328.53;5089898;28;20337;-55
2022/12/13 07:32:31;;;;;;;11.37;6.87;;;;;;;0.04;100.00;94325.22;5089252;28;20249;-56
2022/12/13 07:34:56;;;;;;;13.60;6.83;;;;;;;0.59;100.00;94287.31;5088017;28;20242;-56
2022/12/13 07:37:22;;;;;;;13.03;6.30;;;;;;;0.52;100.00;94295.22;5089611;28;20269;-56
2022/12/13 07:39:47;;;;;;;10.43;6.33;;;;;;;0.08;100.00;94329.16;5090248;28;20208;-52
2022/12/13 07:42:12;;;;;;;13.40;7.23;;;;;;;0.34;100.00;94264.50;5090205;28;20184;-56
2022/12/13 07:44:38;;;;;;;11.30;6.83;;;;;;;0.27;100.00;94294.84;5092481;28;20306;-53
2022/12/13 07:47:04;;;;;;;12.60;7.33;;;;;;;0.46;100.00;94261.38;5093551;28;20189;-55
2022/12/13 07:49:29;;;;;;;11.93;6.40;;;;;;;0.63;100.00;94296.28;5093582;28;20306;-55
2022/12/13 07:51:55;;;;;;;12.37;7.87;;;;;;;0.78;100.00;94305.50;5093483;28;20216;-54
2022/12/13 07:54:21;;;;;;;12.27;6.73;;;;;;;0.70;100.00;94305.09;5093464;28;20210;-55
2022/12/13 07:56:46;;;;;;;16.03;7.87;;;;;;;1.02;100.00;94280.84;5093329;28;20269;-54
2022/12/13 07:59:12;;;;;;;11.90;6.50;;;;;;;0.75;100.00;94314.81;5093421;28;20216;-55
2022/12/13 08:01:37;;;;;;;14.37;7.67;;;;;;;0.95;100.00;94303.78;5093372;28;20245;-54
2022/12/13 08:04:03;;;;;;;11.90;7.30;;;;;;;0.91;100.00;94383.19;5093022;28;20692;-56
2022/12/13 08:06:33;;;;;;;13.50;7.27;;;;;;;0.65;100.00;94382.03;5093272;28;20207;-55
2022/12/13 08:08:58;;;;;;;13.60;7.87;;;;;;;0.24;100.00;94370.81;5092883;28;20218;-57
2022/12/13 08:11:24;;;;;;;13.37;6.47;;;;;;;0.34;100.00;94361.16;5093054;28;20697;-55
2022/12/13 08:13:49;;;;;;;11.13;6.93;;;;;;;0.77;100.00;94373.06;5093128;28;20184;-53
2022/12/13 08:16:17;;;;;;;13.07;7.47;;;;;;;0.64;100.00;94354.59;5093237;28;20619;-55
2022/12/13 08:18:43;;;;;;;11.43;6.80;;;;;;;0.36;100.00;94399.38;5093048;28;20188;-57
2022/12/13 08:21:09;;;;;;;15.37;7.43;;;;;;;0.14;100.00;94373.84;5092928;28;20771;-54
2022/12/13 08:23:36;;;;;;;11.80;6.90;;;;;;;0.28;100.00;94374.78;5092941;28;20188;-53
2022/12/13 08:26:03;;;;;;;12.73;6.27;;;;;;;0.13;100.00;94404.69;5092678;28;20208;-58
2022/12/13 08:28:29;;;;;;;12.43;6.03;;;;;;;0.47;100.00;94382.94;5092868;28;20217;-57
2022/12/13 08:30:55;;;;;;;16.03;6.30;;;;;;;0.69;100.00;94398.50;5093115;28;20694;-56
2022/12/13 08:33:21;;;;;;;13.03;6.97;;;;;;;1.25;100.00;94503.16;5092655;28;20203;-55
2022/12/13 08:35:47;;;;;;;10.67;5.77;;;;;;;1.57;100.00;94473.97;5093154;28;20680;-58
2022/12/13 08:38:13;;;;;;;12.60;6.13;;;;;;;1.36;100.00;94473.41;5092595;28;20185;-59
2022/12/13 08:40:38;;;;;;;10.57;5.83;;;;;;;1.80;100.00;94477.75;5091768;28;20244;-57
2022/12/13 08:43:04;;;;;;;10.40;5.90;;;;;;;1.61;100.00;94502.97;5072009;28;20188;-55
2022/12/13 08:45:32;;;;;;;10.20;5.90;;;;;;;2.15;100.00;94511.72;5090282;28;20210;-54
2022/12/13 08:48:00;;;;;;;10.80;6.53;;;;;;;2.79;100.00;94481.38;5092220;28;20188;-55
2022/12/13 08:50:26;;;;;;;9.67;6.00;;;;;;;2.72;100.00;94516.03;5092630;28;20208;-55
2022/12/13 08:52:51;;;;;;;9.50;4.80;;;;;;;2.10;99.04;94541.28;5092830;28;20570;-55
2022/12/13 08:55:17;;;;;;;7.47;4.70;;;;;;;2.19;100.00;94463.84;5091685;28;20265;-53
2022/12/13 08:57:44;;;;;;;9.67;5.27;;;;;;;2.07;100.00;94491.28;5092350;28;20183;-54
2022/12/13 09:00:15;;;;;;;8.47;5.37;;;;;;;2.77;91.37;94501.50;5092659;28;20295;-54
2022/12/13 09:02:41;;;;;;;10.80;5.80;;;;;;;2.76;82.16;94514.97;5092524;28;20551;-57
2022/12/13 09:05:07;;;;;;;11.57;5.30;;;;;;;3.08;82.23;94501.38;5091936;28;20211;-55
2022/12/13 09:07:34;;;;;;;8.93;5.40;;;;;;;3.23;79.28;94539.84;5091132;28;20206;-56
2022/12/13 09:10:00;;;;;;;8.70;5.30;;;;;;;3.02;80.83;94491.69;5090710;28;20212;-55
2022/12/13 09:12:25;;;;;;;7.27;5.03;;;;;;;3.63;76.36;94539.13;5090677;28;20207;-54
2022/12/13 09:14:51;;;;;;;8.20;5.10;;;;;;;4.14;71.91;94601.34;5092355;28;20270;-53
2022/12/13 09:17:16;;;;;;;8.10;5.60;;;;;;;4.84;74.84;94503.81;5092359;28;20219;-52
2022/12/13 09:19:41;;;;;;;8.57;5.50;;;;;;;5.61;70.76;94584.34;5091938;28;20216;-53
2022/12/13 09:22:07;;;;;;;8.20;5.33;;;;;;;6.26;68.43;94631.16;5092081;28;20196;-56
2022/12/13 09:24:32;;;;;;;10.03;5.83;;;;;;;6.59;69.91;94564.91;5092021;28;20266;-55
2022/12/13 09:26:58;;;;;;;9.53;5.77;;;;;;;6.91;69.92;94552.53;5092002;28;20269;-57
2022/12/13 09:29:23;;;;;;;7.17;4.90;;;;;;;7.33;62.59;94704.41;5073757;28;20312;-63
2022/12/13 09:31:49;;;;;;;8.00;5.03;;;;;;;7.58;65.83;94612.41;5091722;28;20257;-54
2022/12/13 09:34:14;;;;;;;6.77;4.53;;;;;;;7.07;58.54;94758.53;5091895;28;20672;-56
2022/12/13 09:36:41;;;;;;;8.47;5.13;;;;;;;5.81;61.84;94662.81;5092073;28;20195;-53
2022/12/13 09:39:06;;;;;;;6.77;4.93;;;;;;;5.13;61.28;94661.41;5092049;28;20939;-55
2022/12/13 09:41:36;;;;;;;8.23;5.27;;;;;;;5.38;64.78;94574.97;5091085;28;20203;-56
2022/12/13 09:44:13;;;;;;;8.27;4.93;;;;;;;4.76;62.82;94615.09;5089690;28;20727;-54
2022/12/13 09:46:42;;;;;;;8.30;4.97;;;;;;;4.86;64.22;94555.69;5090758;28;20186;-53
2022/12/13 09:49:16;;;;;;;8.00;5.23;;;;;;;5.46;68.47;94477.78;5091670;28;20299;-55
2022/12/13 09:51:45;;;;;;;8.47;5.70;;;;;;;6.16;69.41;94447.72;5091331;28;20636;-55
2022/12/13 09:54:18;;;;;;;9.97;5.40;;;;;;;6.79;67.35;94507.00;5091446;28;20284;-55
2022/12/13 09:56:49;;;;;;;8.10;5.13;;;;;;;7.36;64.64;94592.97;5091469;28;20192;-56
2022/12/13 09:59:15;;;;;;;7.97;5.47;;;;;;;7.54;65.59;94546.06;5091243;28;20223;-55
2022/12/13 10:01:40;;;;;;;7.50;4.63;;;;;;;8.10;64.50;94571.38;5091613;28;20183;-55
2022/12/13 10:04:11;;;;;;;10.03;5.70;;;;;;;8.02;62.06;94625.09;5091729;28;21988;-57
2022/12/13 10:06:37;;;;;;;10.17;6.30;;;;;;;7.94;62.94;94586.13;5091586;28;20192;-57
2022/12/13 10:09:09;;;;;;;9.50;6.07;;;;;;;8.06;62.88;94535.34;5091580;28;20184;-58
2022/12/13 10:11:35;;;;;;;9.17;5.80;;;;;;;8.09;62.18;94567.22;5091436;28;20292;-58
2022/12/13 10:14:14;;;;;;;7.20;5.13;;;;;;;8.12;61.93;94550.06;5091394;28;20195;-57
2022/12/13 10:16:48;;;;;;;9.63;6.43;;;;;;;7.91;58.86;94619.22;5090157;28;20191;-56
2022/12/13 10:19:34;;;;;;;10.47;7.07;;;;;;;7.66;57.96;94572.19;5088922;28;20779;-57
2022/12/13 10:22:03;;;;;;;8.53;5.57;;;;;;;8.11;59.39;94535.81;5090527;28;20726;-58
2022/12/13 10:24:51;;;;;;;6.57;5.10;;;;;;;8.11;62.06;94456.53;5091325;28;20212;-57
2022/12/13 10:27:22;;;;;;;10.00;6.60;;;;;;;7.96;60.70;94483.03;5091074;28;20279;-56
2022/12/13 10:30:09;;;;;;;9.67;6.63;;;;;;;6.97;60.50;94486.41;5091374;28;20216;-57
2022/12/13 10:33:03;;;;;;;12.27;6.63;;;;;;;6.58;59.84;94480.81;5091253;28;20251;-56
2022/12/13 10:35:37;;;;;;;9.40;5.90;;;;;;;5.68;59.40;94477.09;5087510;28;20232;-55
2022/12/13 10:38:12;;;;;;;13.40;6.60;;;;;;;5.73;63.20;94386.84;5091343;28;20198;-54
2022/12/13 10:40:44;;;;;;;11.27;7.17;;;;;;;6.88;62.16;94404.50;5091386;28;20231;-54
2022/12/13 10:43:17;;;;;;;9.73;6.70;;;;;;;7.65;61.61;94431.47;5091024;28;20266;-53
2022/12/13 10:45:55;;;;;;;10.67;6.73;;;;;;;7.79;60.15;94441.31;5091394;28;20638;-55
2022/12/13 10:48:38;;;;;;;10.23;5.90;;;;;;;7.53;58.82;94478.69;5089361;28;20190;-54
2022/12/13 10:51:16;;;;;;;9.40;6.10;;;;;;;7.80;60.98;94414.28;5089933;28;20255;-56
2022/12/13 10:53:48;;;;;;;8.00;6.03;;;;;;;6.25;60.57;94425.13;5090614;28;20332;-57
2022/12/13 10:56:16;;;;;;;8.97;6.33;;;;;;;5.33;62.76;94375.38;5091004;28;20188;-55
2022/12/13 10:58:45;;;;;;;9.13;5.80;;;;;;;5.10;62.53;94371.91;5090883;28;20189;-56
2022/12/13 11:01:16;;;;;;;8.37;5.50;;;;;;;5.37;65.60;94294.44;5090280;28;20212;-55
2022/12/13 11:03:42;;;;;;;9.93;6.23;;;;;;;4.68;65.68;94286.69;5072476;28;20191;-55
2022/12/13 11:06:16;;;;;;;8.37;6.03;;;;;;;4.76;64.51;94328.06;5090556;28;20219;-54
2022/12/13 11:08:42;;;;;;;11.30;6.00;;;;;;;5.56;64.01;94332.53;5090512;28;20268;-54
2022/12/13 11:11:09;;;;;;;8.70;5.37;;;;;;;5.77;60.68;94411.72;5090717;28;20355;-54
2022/12/13 11:13:38;;;;;;;9.37;6.07;;;;;;;6.26;65.11;94294.72;5090571;28;20217;-55
2022/12/13 11:16:26;;;;;;;9.83;6.57;;;;;;;5.90;64.78;94313.31;5090895;28;20215;-55
2022/12/13 11:18:58;;;;;;;10.50;5.97;;;;;;;6.37;62.15;94345.19;5092144;28;20737;-60
2022/12/13 11:21:31;;;;;;;10.67;6.57;;;;;;;6.83;62.49;94348.44;5094455;28;20242;-57
2022/12/13 11:24:05;;;;;;;8.83;6.73;;;;;;;7.07;60.68;94407.25;5076114;28;20234;-56
2022/12/13 11:26:35;;;;;;;10.07;7.07;;;;;;;7.58;62.59;94364.53;5075965;28;20190;-54
2022/12/13 11:29:03;;;;;;;11.63;7.47;;;;;;;7.53;63.31;94332.00;5075665;28;20195;-55
2022/12/13 11:31:40;;;;;;;12.17;7.53;;;;;;;7.72;62.75;94343.22;5093954;28;20220;-56
2022/12/13 11:34:17;;;;;;;9.90;6.60;;;;;;;7.10;61.30;94378.41;5094004;28;20187;-55
2022/12/13 11:36:58;;;;;;;10.33;7.10;;;;;;;7.61;60.12;94397.19;5075806;28;20199;-54